createdAt,value
2022-09-26T00:00:31.303Z,100.00
2022-09-26T00:06:33.224Z,100.00
2022-09-26T00:12:35.143Z,100.00
2022-09-26T00:18:37.808Z,100.00
2022-09-26T00:24:39.711Z,100.00
2022-09-26T00:30:42.699Z,100.00
2022-09-26T00:36:44.658Z,100.00
2022-09-26T00:42:46.948Z,100.00
2022-09-26T00:49:13.735Z,100.00
2022-09-26T00:55:21.409Z,100.00
2022-09-26T01:01:23.525Z,100.00
2022-09-26T01:07:28.407Z,100.00
2022-09-26T01:13:34.423Z,100.00
2022-09-26T01:20:21.251Z,100.00
2022-09-26T01:26:55.501Z,100.00
2022-09-26T01:33:34.062Z,100.00
2022-09-26T01:39:49.289Z,100.00
2022-09-26T01:46:00.792Z,100.00
2022-09-26T01:59:36.525Z,100.00
2022-09-26T02:06:09.609Z,100.00
2022-09-26T02:12:39.309Z,100.00
2022-09-26T02:18:51.063Z,100.00
2022-09-26T02:24:53.908Z,100.00
2022-09-26T02:31:01.250Z,100.00
2022-09-26T02:37:05.543Z,100.00
2022-09-26T02:43:39.738Z,100.00
2022-09-26T02:49:59.785Z,100.00
2022-09-26T02:56:39.456Z,100.00
2022-09-26T03:03:20.371Z,100.00
2022-09-26T03:09:24.329Z,100.00
2022-09-26T03:15:27.899Z,100.00
2022-09-26T03:21:32.731Z,100.00
2022-09-26T03:27:47.674Z,100.00
2022-09-26T03:33:49.767Z,100.00
2022-09-26T03:39:51.781Z,100.00
2022-09-26T03:45:58.698Z,100.00
2022-09-26T03:52:00.850Z,100.00
2022-09-26T03:58:03.300Z,100.00
2022-09-26T04:04:05.241Z,100.00
2022-09-26T04:10:08.165Z,100.00
2022-09-26T04:16:11.614Z,100.00
2022-09-26T04:22:13.628Z,100.00
2022-09-26T04:28:15.555Z,100.00
2022-09-26T04:34:17.489Z,100.00
2022-09-26T04:40:19.480Z,100.00
2022-09-26T04:46:29.599Z,100.00
2022-09-26T04:52:32.923Z,100.00
2022-09-26T04:58:35.841Z,100.00
2022-09-26T05:04:37.769Z,99.65
2022-09-26T05:10:40.316Z,100.00
2022-09-26T05:16:42.273Z,99.71
2022-09-26T05:22:44.220Z,100.00
2022-09-26T05:28:55.669Z,99.67
2022-09-26T05:34:57.627Z,99.99
2022-09-26T05:40:59.656Z,99.40
2022-09-26T05:47:01.617Z,98.14
2022-09-26T05:53:04.398Z,93.90
2022-09-26T05:59:06.467Z,94.29
2022-09-26T06:05:09.210Z,94.06
2022-09-26T06:11:17.783Z,93.02
2022-09-26T06:17:20.138Z,92.13
2022-09-26T06:23:22.218Z,91.85
2022-09-26T06:29:24.143Z,89.79
2022-09-26T06:35:26.059Z,90.17
2022-09-26T06:41:28.207Z,88.64
2022-09-26T06:47:30.393Z,88.02
2022-09-26T06:53:34.863Z,87.54
2022-09-26T06:59:36.759Z,85.45
2022-09-26T07:05:39.733Z,85.04
2022-09-26T07:12:09.978Z,83.22
2022-09-26T07:18:06.777Z,82.29
2022-09-26T07:24:46.997Z,82.33
2022-09-26T07:30:49.072Z,81.75
2022-09-26T07:36:52.189Z,80.53
2022-09-26T07:43:20.099Z,81.30
2022-09-26T07:49:47.571Z,80.58
2022-09-26T07:56:10.660Z,79.47
2022-09-26T08:02:32.911Z,79.38
2022-09-26T08:08:36.297Z,75.09
2022-09-26T08:14:41.577Z,73.66
2022-09-26T08:20:46.981Z,69.06
2022-09-26T08:26:48.825Z,69.30
2022-09-26T08:32:59.150Z,69.13
2022-09-26T08:39:01.063Z,66.92
2022-09-26T08:45:47.300Z,67.21
2022-09-26T08:58:29.083Z,69.56
2022-09-26T09:05:06.286Z,62.79
2022-09-26T09:11:38.786Z,50.94
2022-09-26T09:18:53.792Z,43.22
2022-09-26T09:25:04.914Z,44.48
2022-09-26T09:31:13.518Z,50.79
2022-09-26T09:37:34.899Z,47.77
2022-09-26T09:43:51.485Z,49.48
2022-09-26T09:49:54.125Z,46.75
2022-09-26T09:56:39.900Z,42.17
2022-09-26T10:03:05.865Z,41.51
2022-09-26T10:09:40.879Z,44.84
2022-09-26T10:15:56.130Z,43.31
2022-09-26T10:21:59.576Z,44.37
2022-09-26T10:28:02.701Z,45.88
2022-09-26T10:34:30.480Z,48.70
2022-09-26T10:40:47.922Z,51.36
2022-09-26T10:46:53.004Z,52.34
2022-09-26T10:53:03.051Z,51.17
2022-09-26T10:59:09.888Z,49.21
2022-09-26T11:05:34.574Z,51.45
2022-09-26T11:11:40.390Z,51.34
2022-09-26T11:17:48.994Z,53.78
2022-09-26T11:30:48.244Z,56.25
2022-09-26T11:37:13.670Z,59.40
2022-09-26T11:43:45.067Z,58.81
2022-09-26T11:50:01.183Z,59.14
2022-09-26T11:57:08.615Z,57.73
2022-09-26T12:03:47.011Z,54.16
2022-09-26T12:09:49.151Z,55.32
2022-09-26T12:16:08.485Z,57.37
2022-09-26T12:22:46.753Z,58.83
2022-09-26T12:29:37.217Z,59.30
2022-09-26T12:36:06.169Z,58.36
2022-09-26T12:42:25.330Z,59.18
2022-09-26T12:48:42.331Z,59.39
2022-09-26T12:55:00.266Z,58.54
2022-09-26T13:01:44.387Z,58.41
2022-09-26T13:08:31.301Z,59.15
2022-09-26T13:15:12.850Z,58.97
2022-09-26T13:21:21.553Z,60.29
2022-09-26T13:27:36.129Z,60.93
2022-09-26T13:34:04.140Z,62.17
2022-09-26T13:40:45.670Z,60.77
2022-09-26T13:47:45.044Z,60.57
2022-09-26T13:54:22.701Z,60.66
2022-09-26T14:00:30.325Z,63.47
2022-09-26T14:06:36.929Z,60.24
2022-09-26T14:13:21.496Z,60.12
2022-09-26T14:19:46.823Z,60.76
2022-09-26T14:25:55.635Z,61.31
2022-09-26T14:32:05.319Z,64.47
2022-09-26T14:38:20.815Z,65.70
2022-09-26T14:44:23.362Z,67.46
2022-09-26T14:50:34.330Z,67.70
2022-09-26T14:56:44.915Z,67.67
2022-09-26T15:02:50.277Z,66.80
2022-09-26T15:08:54.486Z,66.24
2022-09-26T15:15:27.259Z,65.92
2022-09-26T15:21:43.125Z,66.44
2022-09-26T15:27:49.582Z,65.51
2022-09-26T15:34:13.378Z,65.97
2022-09-26T15:40:26.582Z,68.60
2022-09-26T15:46:29.274Z,67.72
2022-09-26T15:52:35.436Z,64.54
2022-09-26T15:58:40.178Z,66.27
2022-09-26T16:04:42.577Z,64.47
2022-09-26T16:10:57.969Z,66.38
2022-09-26T16:17:25.161Z,65.74
2022-09-26T16:23:27.548Z,67.67
2022-09-26T16:29:35.858Z,66.82
2022-09-26T16:35:46.541Z,67.49
2022-09-26T16:42:02.683Z,67.34
2022-09-26T16:48:05.475Z,68.18
2022-09-26T16:54:21.818Z,68.45
2022-09-26T17:00:49.970Z,68.07
2022-09-26T17:06:54.761Z,68.91
2022-09-26T17:13:02.496Z,68.32
2022-09-26T17:19:04.933Z,68.17
2022-09-26T17:25:12.430Z,67.88
2022-09-26T17:31:21.239Z,67.62
2022-09-26T17:37:23.535Z,68.54
2022-09-26T17:43:26.755Z,67.56
2022-09-26T17:49:33.863Z,68.26
2022-09-26T17:55:36.430Z,68.39
2022-09-26T18:01:42.589Z,69.73
2022-09-26T18:07:45.782Z,69.81
2022-09-26T18:14:19.901Z,70.23
2022-09-26T18:20:33.533Z,69.72
2022-09-26T18:26:47.177Z,70.75
2022-09-26T18:32:53.977Z,70.99
2022-09-26T18:38:59.220Z,71.69
2022-09-26T18:45:38.239Z,70.77
2022-09-26T18:51:41.217Z,72.46
2022-09-26T18:58:02.078Z,72.30
2022-09-26T19:04:34.312Z,72.97
2022-09-26T19:10:36.291Z,73.53
2022-09-26T19:16:45.601Z,74.18
2022-09-26T19:23:12.568Z,74.53
2022-09-26T19:35:39.876Z,75.14
2022-09-26T19:41:42.265Z,75.36
2022-09-26T19:47:48.126Z,76.53
2022-09-26T19:53:50.379Z,77.47
2022-09-26T19:59:52.321Z,80.94
2022-09-26T20:05:54.275Z,82.99
2022-09-26T20:11:56.223Z,83.78
2022-09-26T20:18:00.180Z,84.45
2022-09-26T20:24:02.440Z,83.92
2022-09-26T20:30:48.992Z,83.02
2022-09-26T20:36:51.732Z,83.37
2022-09-26T20:43:03.931Z,83.63
2022-09-26T20:49:14.919Z,84.74
2022-09-26T20:55:19.246Z,85.01
2022-09-26T21:01:22.605Z,84.19
2022-09-26T21:07:25.072Z,84.29
2022-09-26T21:13:27.005Z,84.83
2022-09-26T21:19:30.590Z,85.97
2022-09-26T21:25:32.740Z,85.66
2022-09-26T21:31:36.105Z,87.03
2022-09-26T21:44:25.406Z,85.35
2022-09-26T21:50:28.734Z,87.15
2022-09-26T21:56:37.550Z,87.95
2022-09-26T22:02:41.470Z,88.97
2022-09-26T22:08:43.458Z,90.50
2022-09-26T22:14:45.547Z,91.33
2022-09-26T22:20:54.627Z,91.32
2022-09-26T22:26:56.580Z,91.28
2022-09-26T22:32:58.491Z,92.96
2022-09-26T22:39:00.693Z,93.18
2022-09-26T22:45:02.768Z,94.31
2022-09-26T22:58:12.608Z,93.38
2022-09-26T23:04:14.656Z,94.11
2022-09-26T23:10:17.891Z,94.85
2022-09-26T23:16:23.546Z,95.99
2022-09-26T23:22:25.590Z,96.83
2022-09-26T23:28:28.161Z,96.81
2022-09-26T23:34:30.072Z,97.71
2022-09-26T23:40:32.417Z,98.31
2022-09-26T23:46:34.537Z,97.97
2022-09-26T23:52:36.520Z,97.13
2022-09-26T23:58:38.776Z,97.78
